Time;durP1;ratioP1;P1;durP2;ratioP2;P2;SDS_P1;SDS_P2;PMS_P1;PMS_P2;Temp;Humidity;BMP_temperature;BMP_pressure;BME280_temperature;BME280_humidity;BME280_pressure;Samples;Min_cycle;Max_cycle;Signal;HPM_P1;HPM_P2
2023/03/01 00:00:29;;;;;;;9.05;5.20;;;;;;;;;;4950686;28;20045;-66
2023/03/01 00:02:56;;;;;;;9.55;5.35;;;;;;;;;;4951463;28;20039;-64
2023/03/01 00:05:23;;;;;;;9.60;4.80;;;;;;;;;;4952940;28;20050;-66
2023/03/01 00:07:49;;;;;;;8.20;5.00;;;;;;;;;;4971949;28;20381;-67
2023/03/01 00:10:16;;;;;;;10.05;4.97;;;;;;;;;;4971216;28;20057;-67
2023/03/01 00:12:42;;;;;;;12.02;5.38;;;;;;;;;;4975735;28;20043;-67
2023/03/01 00:15:09;;;;;;;11.30;5.95;;;;;;;;;;4972650;28;20386;-66
2023/03/01 00:17:36;;;;;;;9.65;5.28;;;;;;;;;;4972540;28;20537;-67
2023/03/01 00:20:02;;;;;;;10.25;5.70;;;;;;;;;;4970010;28;20093;-68
2023/03/01 00:22:29;;;;;;;10.10;5.30;;;;;;;;;;4971596;28;20049;-67
2023/03/01 00:24:56;;;;;;;9.07;4.93;;;;;;;;;;4979810;28;20045;-68
2023/03/01 00:27:22;;;;;;;13.18;6.55;;;;;;;;;;5013614;28;20793;-68
2023/03/01 00:29:49;;;;;;;11.52;6.00;;;;;;;;;;5016340;28;20048;-67
2023/03/01 00:32:16;;;;;;;12.38;5.53;;;;;;;;;;5014989;28;20133;-66
2023/03/01 00:34:42;;;;;;;11.55;6.05;;;;;;;;;;5014294;28;20045;-68
2023/03/01 00:37:09;;;;;;;17.58;6.82;;;;;;;;;;5014756;28;20049;-67
2023/03/01 00:39:35;;;;;;;9.60;5.22;;;;;;;;;;5014474;28;20037;-66
2023/03/01 00:42:22;;;;;;;9.40;5.15;;;;;;;;;;5004216;28;20244;-65
2023/03/01 00:44:48;;;;;;;12.23;5.57;;;;;;;;;;4993250;28;20065;-66
2023/03/01 00:47:15;;;;;;;9.27;5.28;;;;;;;;;;4991899;28;20429;-66
2023/03/01 00:49:42;;;;;;;13.73;6.03;;;;;;;;;;4991936;28;20443;-68
2023/03/01 00:52:08;;;;;;;11.55;5.65;;;;;;;;;;4993574;28;20038;-66
2023/03/01 00:54:35;;;;;;;11.02;6.72;;;;;;;;;;4993722;28;20088;-66
2023/03/01 00:57:01;;;;;;;11.30;5.68;;;;;;;;;;4992320;28;20890;-67
2023/03/01 00:59:28;;;;;;;11.32;6.07;;;;;;;;;;4993821;28;20168;-66
2023/03/01 01:01:55;;;;;;;15.98;5.78;;;;;;;;;;4993153;28;20490;-67
2023/03/01 01:04:22;;;;;;;8.75;5.30;;;;;;;;;;4999619;28;20057;-69
2023/03/01 01:06:49;;;;;;;10.65;5.55;;;;;;;;;;4996049;28;20141;-67
2023/03/01 01:09:17;;;;;;;14.10;6.47;;;;;;;;;;4994069;28;20046;-67
2023/03/01 01:11:44;;;;;;;12.13;6.30;;;;;;;;;;4989816;28;20363;-67
2023/03/01 01:14:11;;;;;;;11.50;5.97;;;;;;;;;;4992048;28;20105;-66
2023/03/01 01:16:38;;;;;;;16.35;6.35;;;;;;;;;;4992448;28;20042;-66
2023/03/01 01:19:05;;;;;;;11.75;6.65;;;;;;;;;;4992507;28;20046;-66
2023/03/01 01:21:32;;;;;;;14.65;6.38;;;;;;;;;;4991785;28;20532;-66
2023/03/01 01:23:59;;;;;;;14.10;6.85;;;;;;;;;;4993001;28;20069;-65
2023/03/01 01:26:27;;;;;;;10.18;5.57;;;;;;;;;;4992875;28;20103;-66
2023/03/01 01:28:54;;;;;;;13.00;6.03;;;;;;;;;;4992098;28;20833;-67
2023/03/01 01:31:23;;;;;;;14.48;5.20;;;;;;;;;;4992462;28;20045;-66
2023/03/01 01:33:50;;;;;;;10.23;5.60;;;;;;;;;;4994459;28;20045;-67
2023/03/01 01:36:17;;;;;;;12.00;6.25;;;;;;;;;;5000958;28;20042;-67
2023/03/01 01:38:44;;;;;;;10.15;5.63;;;;;;;;;;4997743;28;20125;-67
2023/03/01 01:41:11;;;;;;;12.75;5.63;;;;;;;;;;4995134;28;20046;-67
2023/03/01 01:43:40;;;;;;;9.10;5.45;;;;;;;;;;4992500;28;20034;-65
2023/03/01 01:46:15;;;;;;;12.45;5.93;;;;;;;;;;4994389;28;20054;-67
2023/03/01 01:48:44;;;;;;;10.18;5.35;;;;;;;;;;4991227;28;20436;-68
2023/03/01 01:51:13;;;;;;;11.13;6.07;;;;;;;;;;4993192;28;20038;-67
2023/03/01 01:53:40;;;;;;;10.52;5.20;;;;;;;;;;4992216;28;20041;-66
2023/03/01 01:56:09;;;;;;;10.95;6.00;;;;;;;;;;4992965;28;20041;-67
2023/03/01 01:58:36;;;;;;;15.65;6.25;;;;;;;;;;4992379;28;21889;-67
2023/03/01 02:01:04;;;;;;;11.43;6.20;;;;;;;;;;4997983;28;20056;-66
2023/03/01 02:03:37;;;;;;;10.60;5.70;;;;;;;;;;5001848;28;20049;-68
2023/03/01 02:06:06;;;;;;;12.70;6.45;;;;;;;;;;5016680;28;20081;-66
2023/03/01 02:08:36;;;;;;;11.10;5.60;;;;;;;;;;5014579;28;21803;-66
2023/03/01 02:11:04;;;;;;;11.20;5.85;;;;;;;;;;5015606;28;20034;-67
2023/03/01 02:13:31;;;;;;;11.57;5.72;;;;;;;;;;5014148;28;20048;-66
2023/03/01 02:15:58;;;;;;;15.73;7.25;;;;;;;;;;5014868;28;20093;-67
2023/03/01 02:18:25;;;;;;;10.40;5.75;;;;;;;;;;5013718;28;20046;-68
2023/03/01 02:21:00;;;;;;;11.15;5.88;;;;;;;;;;5016306;28;20049;-67
2023/03/01 02:23:26;;;;;;;9.48;5.50;;;;;;;;;;5014282;28;20446;-67
2023/03/01 02:25:56;;;;;;;11.82;5.60;;;;;;;;;;5015462;28;20045;-69
2023/03/01 02:28:36;;;;;;;11.18;5.78;;;;;;;;;;5014228;28;20041;-68
2023/03/01 02:33:49;;;;;;;9.70;5.38;;;;;;;;;;5030860;28;20776;-67
2023/03/01 02:36:27;;;;;;;11.73;5.32;;;;;;;;;;5033244;28;20036;-68
2023/03/01 02:38:57;;;;;;;9.00;5.05;;;;;;;;;;5031090;28;20036;-68
2023/03/01 02:41:25;;;;;;;8.30;4.43;;;;;;;;;;5032499;28;20049;-68
2023/03/01 02:43:52;;;;;;;10.43;5.07;;;;;;;;;;5033843;28;20060;-68
2023/03/01 02:46:20;;;;;;;10.07;6.25;;;;;;;;;;5031163;28;20060;-68
2023/03/01 02:48:49;;;;;;;11.02;5.55;;;;;;;;;;5030641;28;20037;-69
2023/03/01 02:51:18;;;;;;;9.77;4.95;;;;;;;;;;5032945;28;20041;-69
2023/03/01 02:53:53;;;;;;;9.10;4.93;;;;;;;;;;5031866;28;20358;-66
2023/03/01 02:56:20;;;;;;;8.63;5.15;;;;;;;;;;5032556;28;20122;-67
2023/03/01 02:58:51;;;;;;;14.63;5.05;;;;;;;;;;5033238;28;20228;-68
2023/03/01 03:01:17;;;;;;;9.30;4.93;;;;;;;;;;5032996;28;20172;-69
2023/03/01 03:03:44;;;;;;;13.27;5.70;;;;;;;;;;5030520;28;20397;-67
2023/03/01 03:06:11;;;;;;;8.50;4.75;;;;;;;;;;5034049;28;20045;-66
2023/03/01 03:08:38;;;;;;;6.88;4.00;;;;;;;;;;5033295;28;20037;-69
2023/03/01 03:11:06;;;;;;;15.15;4.32;;;;;;;;;;5034201;28;20037;-66
2023/03/01 03:13:33;;;;;;;11.65;4.72;;;;;;;;;;5033010;28;20031;-67
2023/03/01 03:15:59;;;;;;;8.32;4.97;;;;;;;;;;5034901;28;20037;-66
2023/03/01 03:18:26;;;;;;;9.52;4.82;;;;;;;;;;5030981;28;20043;-67
2023/03/01 03:20:53;;;;;;;8.15;3.95;;;;;;;;;;5031334;28;20416;-67
2023/03/01 03:23:21;;;;;;;7.97;3.78;;;;;;;;;;5032378;28;20047;-68
2023/03/01 03:25:51;;;;;;;10.98;3.88;;;;;;;;;;5031817;28;20052;-67
2023/03/01 03:28:19;;;;;;;7.30;3.45;;;;;;;;;;5033197;28;20049;-68
2023/03/01 03:30:46;;;;;;;6.55;3.47;;;;;;;;;;5032831;28;20101;-68
2023/03/01 03:33:13;;;;;;;7.63;3.80;;;;;;;;;;5031904;28;20072;-67
2023/03/01 03:35:48;;;;;;;10.60;4.22;;;;;;;;;;5017153;28;20064;-66
2023/03/01 03:38:17;;;;;;;6.97;3.70;;;;;;;;;;5015267;28;20038;-66
2023/03/01 03:40:44;;;;;;;6.88;3.35;;;;;;;;;;5028438;28;20048;-66
2023/03/01 03:43:12;;;;;;;7.30;3.50;;;;;;;;;;5014560;28;20147;-67
2023/03/01 03:45:39;;;;;;;7.15;4.00;;;;;;;;;;5031939;28;20098;-67
2023/03/01 03:48:07;;;;;;;7.03;3.30;;;;;;;;;;5030504;28;20036;-66
2023/03/01 03:50:34;;;;;;;8.35;4.00;;;;;;;;;;5013264;28;20171;-67
2023/03/01 03:53:01;;;;;;;7.22;3.70;;;;;;;;;;5032713;28;20045;-66
2023/03/01 03:55:30;;;;;;;8.80;4.18;;;;;;;;;;5033278;28;20128;-66
2023/03/01 03:58:06;;;;;;;9.32;3.88;;;;;;;;;;5034258;28;20518;-66
2023/03/01 04:00:34;;;;;;;8.65;3.25;;;;;;;;;;5036936;28;20053;-67
2023/03/01 04:03:02;;;;;;;8.77;3.70;;;;;;;;;;5040933;28;20044;-67
2023/03/01 04:05:28;;;;;;;9.00;3.50;;;;;;;;;;5037129;28;20120;-67
2023/03/01 04:08:06;;;;;;;6.88;2.95;;;;;;;;;;5023696;28;20557;-67
2023/03/01 04:10:36;;;;;;;5.60;3.00;;;;;;;;;;5025245;28;21037;-68
2023/03/01 04:13:02;;;;;;;7.15;3.20;;;;;;;;;;5035553;28;20421;-67
2023/03/01 04:15:29;;;;;;;5.35;2.92;;;;;;;;;;5036841;28;20877;-68
2023/03/01 04:17:56;;;;;;;9.75;3.08;;;;;;;;;;5035032;28;20588;-66
2023/03/01 04:20:24;;;;;;;8.20;3.38;;;;;;;;;;5021849;28;20505;-67
2023/03/01 04:23:20;;;;;;;6.63;3.10;;;;;;;;;;5013138;28;20792;-66
2023/03/01 04:25:55;;;;;;;7.28;3.42;;;;;;;;;;5033589;28;20053;-68
2023/03/01 04:28:24;;;;;;;7.20;3.20;;;;;;;;;;5033784;28;20072;-66
2023/03/01 04:30:51;;;;;;;7.75;3.20;;;;;;;;;;5036080;28;20067;-66
2023/03/01 04:33:18;;;;;;;8.77;3.40;;;;;;;;;;5034194;28;20037;-66
2023/03/01 04:35:45;;;;;;;7.68;3.05;;;;;;;;;;5034111;28;20080;-65
2023/03/01 04:38:12;;;;;;;8.13;2.80;;;;;;;;;;5033908;28;20053;-66
2023/03/01 04:40:38;;;;;;;6.10;2.75;;;;;;;;;;5032214;28;20470;-65
2023/03/01 04:43:05;;;;;;;9.52;3.83;;;;;;;;;;5033728;28;20464;-64
2023/03/01 04:45:34;;;;;;;5.38;2.65;;;;;;;;;;5033568;28;20090;-66
2023/03/01 04:48:00;;;;;;;5.82;3.38;;;;;;;;;;5029222;28;20038;-66
2023/03/01 04:50:27;;;;;;;6.80;3.30;;;;;;;;;;5013884;28;20041;-67
2023/03/01 04:52:54;;;;;;;5.95;3.08;;;;;;;;;;5019141;28;20033;-67
2023/03/01 04:55:21;;;;;;;6.10;3.38;;;;;;;;;;5024748;28;20041;-68
2023/03/01 04:57:48;;;;;;;9.15;3.83;;;;;;;;;;5035344;28;20148;-66
2023/03/01 05:00:21;;;;;;;5.72;3.63;;;;;;;;;;5034068;28;20069;-67
2023/03/01 05:02:53;;;;;;;4.45;2.80;;;;;;;;;;5033774;28;20037;-67
2023/03/01 05:05:29;;;;;;;7.88;4.05;;;;;;;;;;5033882;28;20045;-67
2023/03/01 05:07:57;;;;;;;6.63;3.60;;;;;;;;;;5034098;28;20130;-67
2023/03/01 05:10:24;;;;;;;8.88;3.42;;;;;;;;;;5017510;28;20091;-67
2023/03/01 05:12:52;;;;;;;8.30;3.22;;;;;;;;;;5014003;28;20045;-66
2023/03/01 05:15:21;;;;;;;6.10;3.40;;;;;;;;;;5017505;28;20038;-66
2023/03/01 05:17:48;;;;;;;6.90;3.95;;;;;;;;;;5034107;28;20057;-66
2023/03/01 05:20:15;;;;;;;9.30;2.90;;;;;;;;;;5033921;28;20045;-66
2023/03/01 05:22:42;;;;;;;7.40;3.38;;;;;;;;;;5034004;28;20056;-66
2023/03/01 05:25:08;;;;;;;7.05;3.13;;;;;;;;;;5033592;28;20083;-68
2023/03/01 05:27:36;;;;;;;9.68;3.63;;;;;;;;;;5031055;28;20034;-67
2023/03/01 05:30:13;;;;;;;6.78;3.22;;;;;;;;;;5033993;28;20450;-67
2023/03/01 05:32:47;;;;;;;8.98;4.07;;;;;;;;;;5033757;28;20075;-67
2023/03/01 05:35:14;;;;;;;8.13;3.42;;;;;;;;;;5034313;28;20045;-67
2023/03/01 05:37:42;;;;;;;7.80;3.78;;;;;;;;;;5032869;28;20377;-67
2023/03/01 05:40:15;;;;;;;6.95;3.67;;;;;;;;;;5036051;28;20112;-66
2023/03/01 05:42:55;;;;;;;8.05;3.60;;;;;;;;;;5033811;28;20041;-67
2023/03/01 05:45:23;;;;;;;7.10;3.17;;;;;;;;;;5031805;28;20072;-68
2023/03/01 05:47:50;;;;;;;6.30;3.33;;;;;;;;;;5033776;28;20037;-68
2023/03/01 05:50:26;;;;;;;6.18;3.45;;;;;;;;;;5033759;28;20093;-67
2023/03/01 05:52:57;;;;;;;7.50;3.65;;;;;;;;;;5034751;28;20148;-68
2023/03/01 05:55:24;;;;;;;10.65;4.05;;;;;;;;;;5032456;28;20114;-67
2023/03/01 05:57:51;;;;;;;5.55;2.85;;;;;;;;;;5031431;28;20041;-67
2023/03/01 06:00:19;;;;;;;7.30;3.63;;;;;;;;;;5033758;28;20037;-66
2023/03/01 06:02:46;;;;;;;6.43;3.28;;;;;;;;;;5034360;28;20059;-67
2023/03/01 06:05:13;;;;;;;9.35;4.65;;;;;;;;;;5032582;28;20049;-66
2023/03/01 06:07:40;;;;;;;6.10;3.55;;;;;;;;;;5031566;28;20033;-67
2023/03/01 06:10:08;;;;;;;7.18;4.03;;;;;;;;;;5033839;28;20535;-68
2023/03/01 06:12:36;;;;;;;8.73;4.60;;;;;;;;;;5033562;28;20502;-68
2023/03/01 06:15:03;;;;;;;7.60;4.40;;;;;;;;;;5034045;28;20048;-67
2023/03/01 06:17:30;;;;;;;7.13;3.58;;;;;;;;;;5031140;28;20410;-67
2023/03/01 06:19:57;;;;;;;8.27;3.90;;;;;;;;;;5020172;28;20040;-66
2023/03/01 06:22:24;;;;;;;5.80;3.05;;;;;;;;;;5033208;28;20401;-67
2023/03/01 06:24:51;;;;;;;10.25;4.80;;;;;;;;;;5033270;28;20140;-67
2023/03/01 06:27:17;;;;;;;8.95;3.97;;;;;;;;;;5033709;28;20041;-69
2023/03/01 06:29:44;;;;;;;6.50;3.58;;;;;;;;;;5032719;28;20064;-68
2023/03/01 06:32:11;;;;;;;8.23;4.38;;;;;;;;;;5033711;28;20505;-63
2023/03/01 06:34:37;;;;;;;7.50;3.38;;;;;;;;;;5031819;28;20049;-70
2023/03/01 06:37:05;;;;;;;10.75;4.18;;;;;;;;;;5033300;28;20644;-67
2023/03/01 06:39:32;;;;;;;8.80;3.92;;;;;;;;;;5031122;28;20048;-69
2023/03/01 06:41:59;;;;;;;8.68;4.32;;;;;;;;;;5033513;28;20131;-68
2023/03/01 06:44:25;;;;;;;6.10;3.15;;;;;;;;;;5028422;28;20049;-66
2023/03/01 06:46:52;;;;;;;7.63;4.22;;;;;;;;;;5034018;28;20780;-68
2023/03/01 06:49:19;;;;;;;7.70;3.92;;;;;;;;;;5031339;28;20405;-69
2023/03/01 06:51:46;;;;;;;7.53;2.78;;;;;;;;;;5033894;28;21107;-69
2023/03/01 06:54:13;;;;;;;4.85;2.72;;;;;;;;;;5033944;28;20059;-68
2023/03/01 06:56:40;;;;;;;7.43;3.67;;;;;;;;;;5031651;28;20152;-69
2023/03/01 06:59:07;;;;;;;7.00;3.50;;;;;;;;;;5031297;28;20067;-68
2023/03/01 07:01:33;;;;;;;7.90;3.60;;;;;;;;;;5031553;28;20389;-69
2023/03/01 07:04:00;;;;;;;9.43;3.78;;;;;;;;;;5031168;28;20041;-68
2023/03/01 07:06:26;;;;;;;7.35;4.10;;;;;;;;;;5031151;28;20091;-68
2023/03/01 07:08:53;;;;;;;12.70;3.72;;;;;;;;;;5031609;28;20067;-69
2023/03/01 07:11:20;;;;;;;7.07;3.67;;;;;;;;;;5032290;28;20039;-67
2023/03/01 07:13:46;;;;;;;8.70;3.72;;;;;;;;;;5032790;28;20087;-67
2023/03/01 07:16:14;;;;;;;6.45;3.47;;;;;;;;;;5018027;28;20045;-68
2023/03/01 07:18:41;;;;;;;7.93;4.20;;;;;;;;;;5031037;28;20044;-65
2023/03/01 07:21:13;;;;;;;7.80;3.78;;;;;;;;;;5032226;28;20055;-67
2023/03/01 07:23:39;;;;;;;7.53;4.13;;;;;;;;;;5031204;28;20075;-67
2023/03/01 07:26:06;;;;;;;9.95;3.75;;;;;;;;;;5032918;28;20103;-68
2023/03/01 07:28:38;;;;;;;7.70;3.75;;;;;;;;;;5015113;28;20128;-68
2023/03/01 07:31:05;;;;;;;10.43;4.15;;;;;;;;;;5036879;28;20041;-67
2023/03/01 07:33:32;;;;;;;9.20;4.10;;;;;;;;;;5040773;28;20041;-68
2023/03/01 07:35:59;;;;;;;6.00;3.28;;;;;;;;;;5040483;28;20045;-69
2023/03/01 07:38:30;;;;;;;7.22;4.03;;;;;;;;;;5041929;28;20041;-68
2023/03/01 07:41:00;;;;;;;6.60;3.63;;;;;;;;;;5039141;28;20544;-68
2023/03/01 07:43:27;;;;;;;10.32;3.67;;;;;;;;;;5037702;28;20037;-67
2023/03/01 07:45:54;;;;;;;9.88;4.32;;;;;;;;;;5036889;28;20041;-68
2023/03/01 07:48:21;;;;;;;7.55;3.40;;;;;;;;;;5034423;28;20032;-68
2023/03/01 07:50:47;;;;;;;8.23;3.53;;;;;;;;;;5026074;28;20120;-68
2023/03/01 07:53:34;;;;;;;9.80;4.85;;;;;;;;;;5009876;28;20047;-68
2023/03/01 07:56:05;;;;;;;14.45;4.30;;;;;;;;;;5009955;28;20042;-69
2023/03/01 07:58:41;;;;;;;8.38;3.08;;;;;;;;;;5007575;28;20517;-69
2023/03/01 08:01:09;;;;;;;17.70;4.97;;;;;;;;;;5009666;28;20054;-68
2023/03/01 08:03:36;;;;;;;12.32;5.22;;;;;;;;;;5009168;28;20048;-68
2023/03/01 08:06:04;;;;;;;13.10;5.45;;;;;;;;;;5009743;28;20073;-67
2023/03/01 08:08:31;;;;;;;9.80;5.15;;;;;;;;;;5011804;28;20037;-67
2023/03/01 08:10:58;;;;;;;12.45;5.63;;;;;;;;;;5009224;28;20044;-67
2023/03/01 08:13:25;;;;;;;12.48;5.25;;;;;;;;;;5008258;28;20253;-67
2023/03/01 08:15:52;;;;;;;25.65;6.25;;;;;;;;;;5009039;28;20037;-67
2023/03/01 08:18:19;;;;;;;21.38;7.43;;;;;;;;;;5008759;28;20041;-66
2023/03/01 08:20:46;;;;;;;16.40;5.78;;;;;;;;;;5009198;28;20498;-67
2023/03/01 08:23:12;;;;;;;14.45;5.25;;;;;;;;;;5010480;28;20041;-68
2023/03/01 08:25:39;;;;;;;10.18;4.45;;;;;;;;;;5013822;28;20046;-68
2023/03/01 08:28:06;;;;;;;11.63;5.10;;;;;;;;;;5015450;28;20046;-67
2023/03/01 08:30:32;;;;;;;16.60;4.95;;;;;;;;;;5016039;28;20390;-67
2023/03/01 08:32:59;;;;;;;13.90;4.65;;;;;;;;;;5016110;28;20072;-66
2023/03/01 08:35:26;;;;;;;12.48;4.80;;;;;;;;;;5015718;28;20107;-67
2023/03/01 08:37:52;;;;;;;11.50;4.45;;;;;;;;;;5016058;28;20132;-67
2023/03/01 08:40:19;;;;;;;9.77;4.68;;;;;;;;;;5014921;28;20121;-68
2023/03/01 08:42:46;;;;;;;12.68;4.95;;;;;;;;;;5016037;28;20068;-67
2023/03/01 08:45:17;;;;;;;18.45;6.85;;;;;;;;;;5015567;28;20060;-67
2023/03/01 08:47:45;;;;;;;22.33;7.03;;;;;;;;;;5013545;28;20041;-67
2023/03/01 08:50:11;;;;;;;11.85;5.75;;;;;;;;;;5015223;28;20037;-67
2023/03/01 08:52:38;;;;;;;23.58;5.72;;;;;;;;;;5015645;28;20044;-66
2023/03/01 08:55:05;;;;;;;15.15;5.28;;;;;;;;;;5015216;28;20345;-67
2023/03/01 08:57:31;;;;;;;17.13;5.80;;;;;;;;;;5012323;28;20061;-67
2023/03/01 08:59:58;;;;;;;12.45;5.32;;;;;;;;;;5015481;28;20091;-67
2023/03/01 09:02:25;;;;;;;15.85;5.45;;;;;;;;;;5012362;28;20720;-67
2023/03/01 09:04:51;;;;;;;12.32;5.72;;;;;;;;;;5025561;28;20045;-67
2023/03/01 09:07:18;;;;;;;26.95;6.88;;;;;;;;;;5033965;28;20045;-67
2023/03/01 09:09:44;;;;;;;15.50;5.30;;;;;;;;;;5033869;28;20049;-67
2023/03/01 09:12:11;;;;;;;33.20;7.40;;;;;;;;;;5034290;28;20040;-66
2023/03/01 09:14:38;;;;;;;58.78;8.15;;;;;;;;;;5031222;28;20044;-66
2023/03/01 09:17:05;;;;;;;29.42;6.50;;;;;;;;;;5014139;28;20060;-66
2023/03/01 09:19:32;;;;;;;57.38;8.38;;;;;;;;;;5015809;28;20538;-66
2023/03/01 09:21:58;;;;;;;40.58;7.18;;;;;;;;;;5033419;28;20379;-66
2023/03/01 09:24:25;;;;;;;61.20;8.35;;;;;;;;;;5033084;28;20033;-66
2023/03/01 09:26:55;;;;;;;44.08;7.68;;;;;;;;;;5035682;28;20056;-67
2023/03/01 09:29:22;;;;;;;44.38;7.97;;;;;;;;;;5033076;28;20045;-67
2023/03/01 09:31:49;;;;;;;33.30;6.70;;;;;;;;;;5034985;28;20135;-66
2023/03/01 09:34:19;;;;;;;24.05;7.57;;;;;;;;;;5034469;28;20152;-67
2023/03/01 09:36:45;;;;;;;21.88;6.90;;;;;;;;;;5033777;28;20043;-68
2023/03/01 09:39:12;;;;;;;52.17;8.40;;;;;;;;;;5035199;28;20056;-69
2023/03/01 09:41:59;;;;;;;34.53;8.35;;;;;;;;;;5033161;28;20056;-67
2023/03/01 09:44:31;;;;;;;29.50;6.68;;;;;;;;;;5034586;28;20037;-67
2023/03/01 09:46:58;;;;;;;9.80;5.00;;;;;;;;;;5033692;28;20493;-68
2023/03/01 09:49:26;;;;;;;20.85;6.95;;;;;;;;;;5032308;28;20560;-67
2023/03/01 09:51:56;;;;;;;52.50;8.20;;;;;;;;;;5031675;28;20048;-66
2023/03/01 09:54:23;;;;;;;55.50;7.97;;;;;;;;;;5034874;28;20659;-67
2023/03/01 09:57:08;;;;;;;27.35;7.40;;;;;;;;;;5029604;28;20709;-66
2023/03/01 09:59:54;;;;;;;42.67;8.25;;;;;;;;;;5033268;28;20741;-67
2023/03/01 10:02:39;;;;;;;24.73;6.57;;;;;;;;;;5004474;28;20033;-67
2023/03/01 10:05:26;;;;;;;29.83;5.72;;;;;;;;;;5034174;28;20039;-66
2023/03/01 10:07:55;;;;;;;46.30;7.30;;;;;;;;;;5025913;28;20692;-66
2023/03/01 10:10:42;;;;;;;45.80;7.47;;;;;;;;;;5041184;28;20025;-67
2023/03/01 10:13:12;;;;;;;19.50;6.75;;;;;;;;;;5037818;28;20469;-68
2023/03/01 10:16:04;;;;;;;52.15;8.43;;;;;;;;;;5034625;28;20049;-67
2023/03/01 10:18:33;;;;;;;19.33;6.45;;;;;;;;;;4996334;28;20056;-67
2023/03/01 10:21:04;;;;;;;78.45;12.48;;;;;;;;;;5033372;28;20043;-66
2023/03/01 10:23:35;;;;;;;21.00;7.05;;;;;;;;;;5031670;28;20041;-67
2023/03/01 10:26:25;;;;;;;22.50;7.32;;;;;;;;;;5033624;28;20501;-66
2023/03/01 10:28:51;;;;;;;39.00;8.68;;;;;;;;;;5031668;28;20064;-65
2023/03/01 10:31:27;;;;;;;38.67;10.00;;;;;;;;;;5032748;28;20041;-67
2023/03/01 10:33:56;;;;;;;36.80;7.40;;;;;;;;;;5031953;28;20134;-66
2023/03/01 10:36:23;;;;;;;26.02;8.90;;;;;;;;;;5031642;28;20494;-66
2023/03/01 10:38:58;;;;;;;56.17;8.32;;;;;;;;;;5033989;28;20045;-67
2023/03/01 10:41:26;;;;;;;19.83;7.13;;;;;;;;;;5033127;28;20049;-68
2023/03/01 10:43:57;;;;;;;24.48;7.32;;;;;;;;;;5033481;28;20497;-67
2023/03/01 10:46:27;;;;;;;37.38;8.35;;;;;;;;;;5032920;28;20045;-66
2023/03/01 10:49:12;;;;;;;28.00;9.07;;;;;;;;;;5032978;28;20057;-66
2023/03/01 10:51:40;;;;;;;21.85;8.52;;;;;;;;;;5032460;28;20497;-66
2023/03/01 10:54:15;;;;;;;23.38;7.78;;;;;;;;;;5015672;28;20114;-66
2023/03/01 10:56:50;;;;;;;36.13;8.05;;;;;;;;;;5032531;28;20166;-67
2023/03/01 10:59:27;;;;;;;27.65;8.70;;;;;;;;;;5034085;28;20054;-67
2023/03/01 11:02:12;;;;;;;27.25;8.82;;;;;;;;;;5033604;28;20037;-67
2023/03/01 11:04:39;;;;;;;38.80;8.48;;;;;;;;;;5036877;28;20079;-68
2023/03/01 11:07:05;;;;;;;31.05;10.07;;;;;;;;;;5035849;28;20052;-69
2023/03/01 11:09:37;;;;;;;43.10;8.45;;;;;;;;;;5028073;28;20068;-67
2023/03/01 11:12:05;;;;;;;34.63;9.68;;;;;;;;;;5038441;28;20140;-68
2023/03/01 11:14:40;;;;;;;40.15;9.80;;;;;;;;;;5036124;28;20145;-68
2023/03/01 11:17:18;;;;;;;30.77;9.15;;;;;;;;;;5036076;28;20041;-68
2023/03/01 11:20:00;;;;;;;50.35;9.70;;;;;;;;;;5037094;28;20059;-66
2023/03/01 11:22:27;;;;;;;39.22;9.65;;;;;;;;;;5021946;28;20144;-68
2023/03/01 11:24:55;;;;;;;34.20;10.98;;;;;;;;;;5036267;28;20033;-67
2023/03/01 11:27:35;;;;;;;28.90;8.00;;;;;;;;;;5036174;28;20192;-68
2023/03/01 11:30:05;;;;;;;48.75;9.65;;;;;;;;;;5036586;28;20041;-67
2023/03/01 11:32:36;;;;;;;28.52;8.95;;;;;;;;;;5034358;28;20132;-67
2023/03/01 11:35:11;;;;;;;68.05;8.50;;;;;;;;;;5036078;28;20037;-67
2023/03/01 11:37:50;;;;;;;54.45;10.13;;;;;;;;;;5034559;28;20061;-68
2023/03/01 11:40:22;;;;;;;24.90;8.50;;;;;;;;;;5018920;28;20044;-67
2023/03/01 11:43:09;;;;;;;32.20;9.70;;;;;;;;;;5034917;28;20167;-69
2023/03/01 11:45:56;;;;;;;72.68;11.02;;;;;;;;;;5036632;28;20048;-67
2023/03/01 11:48:46;;;;;;;24.60;7.97;;;;;;;;;;5035620;28;20052;-67
2023/03/01 11:51:21;;;;;;;92.32;11.52;;;;;;;;;;5036768;28;20044;-68
2023/03/01 11:53:57;;;;;;;55.63;9.98;;;;;;;;;;5022199;28;20041;-68
2023/03/01 11:56:27;;;;;;;64.82;10.27;;;;;;;;;;5021589;28;20052;-67
2023/03/01 11:58:53;;;;;;;27.58;8.27;;;;;;;;;;5036001;28;20033;-67
2023/03/01 12:01:20;;;;;;;48.58;10.98;;;;;;;;;;5035545;28;20037;-67
2023/03/01 12:03:49;;;;;;;24.40;9.68;;;;;;;;;;5034645;28;20126;-66
2023/03/01 12:06:35;;;;;;;47.38;11.90;;;;;;;;;;5035683;28;20481;-66
2023/03/01 12:09:04;;;;;;;31.40;8.40;;;;;;;;;;5034829;28;20134;-66
2023/03/01 12:11:43;;;;;;;21.88;11.10;;;;;;;;;;5035797;28;20124;-66
2023/03/01 12:14:12;;;;;;;27.45;9.98;;;;;;;;;;5021825;28;20052;-66
2023/03/01 12:16:57;;;;;;;32.22;10.65;;;;;;;;;;5033969;28;20408;-67
2023/03/01 12:19:47;;;;;;;24.58;10.50;;;;;;;;;;5019650;28;20164;-66
2023/03/01 12:22:17;;;;;;;29.17;10.50;;;;;;;;;;5036266;28;20045;-66
2023/03/01 12:24:49;;;;;;;23.02;11.35;;;;;;;;;;5033962;28;20044;-66
2023/03/01 12:27:28;;;;;;;27.92;12.40;;;;;;;;;;5034530;28;20053;-68
2023/03/01 12:30:02;;;;;;;23.67;11.27;;;;;;;;;;5021714;28;20138;-66
2023/03/01 12:32:44;;;;;;;27.92;11.50;;;;;;;;;;5014961;28;20386;-66
2023/03/01 12:35:29;;;;;;;39.60;14.57;;;;;;;;;;5022394;28;20052;-68
2023/03/01 12:38:08;;;;;;;32.83;14.40;;;;;;;;;;5014199;28;20041;-67
2023/03/01 12:40:43;;;;;;;26.33;12.02;;;;;;;;;;5014699;28;20133;-66
2023/03/01 12:43:35;;;;;;;23.08;10.65;;;;;;;;;;4995576;28;20026;-67
2023/03/01 12:46:19;;;;;;;30.73;13.98;;;;;;;;;;4995696;28;20076;-67
2023/03/01 12:49:04;;;;;;;29.67;13.45;;;;;;;;;;4995953;28;20096;-66
2023/03/01 12:51:34;;;;;;;26.67;12.95;;;;;;;;;;4995749;28;20050;-68
2023/03/01 12:54:06;;;;;;;26.23;12.68;;;;;;;;;;4996858;28;20050;-67
2023/03/01 12:56:35;;;;;;;29.00;11.50;;;;;;;;;;4995293;28;20049;-67
2023/03/01 12:59:11;;;;;;;27.42;12.35;;;;;;;;;;4994258;28;20511;-66
2023/03/01 13:01:56;;;;;;;26.30;12.43;;;;;;;;;;4995385;28;20042;-66
2023/03/01 13:04:41;;;;;;;27.25;12.93;;;;;;;;;;4977860;28;20147;-66
2023/03/01 13:07:26;;;;;;;33.20;15.20;;;;;;;;;;4985634;28;20984;-65
2023/03/01 13:10:02;;;;;;;40.45;16.00;;;;;;;;;;4995202;28;20782;-65
2023/03/01 13:12:44;;;;;;;25.77;11.55;;;;;;;;;;4995226;28;20172;-67
2023/03/01 13:15:22;;;;;;;20.45;9.90;;;;;;;;;;4996296;28;20180;-66
2023/03/01 13:18:09;;;;;;;25.45;11.25;;;;;;;;;;4996750;28;20034;-66
2023/03/01 13:20:46;;;;;;;28.27;11.52;;;;;;;;;;5007522;28;20041;-67
2023/03/01 13:23:12;;;;;;;21.70;9.70;;;;;;;;;;5016257;28;20073;-67
2023/03/01 13:25:57;;;;;;;23.98;10.23;;;;;;;;;;5029871;28;20093;-66
2023/03/01 13:28:36;;;;;;;23.48;11.45;;;;;;;;;;5011808;28;20046;-66
2023/03/01 13:31:04;;;;;;;21.60;9.82;;;;;;;;;;5014384;28;20049;-66
2023/03/01 13:33:30;;;;;;;21.15;10.32;;;;;;;;;;5014979;28;20046;-66
2023/03/01 13:36:00;;;;;;;20.80;9.07;;;;;;;;;;5012807;28;20600;-66
2023/03/01 13:38:40;;;;;;;13.75;8.20;;;;;;;;;;5012206;28;20038;-66
2023/03/01 13:41:08;;;;;;;22.55;10.27;;;;;;;;;;5014073;28;20092;-67
2023/03/01 13:43:38;;;;;;;20.73;10.18;;;;;;;;;;5012599;28;20037;-66
2023/03/01 13:46:17;;;;;;;22.13;10.52;;;;;;;;;;5019327;28;20131;-67
2023/03/01 13:48:45;;;;;;;23.83;10.32;;;;;;;;;;5023420;28;20097;-64
2023/03/01 13:51:13;;;;;;;29.77;11.23;;;;;;;;;;5033486;28;20071;-68
2023/03/01 13:53:47;;;;;;;18.88;8.75;;;;;;;;;;5031680;28;20700;-67
2023/03/01 13:56:14;;;;;;;14.88;7.13;;;;;;;;;;5019605;28;20045;-67
2023/03/01 13:58:54;;;;;;;24.60;10.10;;;;;;;;;;5030668;28;20049;-67
2023/03/01 14:01:26;;;;;;;24.83;10.43;;;;;;;;;;5031777;28;20152;-66
2023/03/01 14:03:52;;;;;;;24.17;10.95;;;;;;;;;;5033840;28;20041;-67
2023/03/01 14:06:23;;;;;;;31.17;14.23;;;;;;;;;;5033041;28;20049;-68
2023/03/01 14:08:51;;;;;;;22.83;10.82;;;;;;;;;;5030820;28;20045;-68
2023/03/01 14:11:36;;;;;;;23.38;12.48;;;;;;;;;;5032667;28;20568;-68
2023/03/01 14:14:12;;;;;;;23.60;10.60;;;;;;;;;;5013571;28;20056;-66
2023/03/01 14:16:46;;;;;;;21.08;11.07;;;;;;;;;;5031632;28;22454;-66
2023/03/01 14:19:19;;;;;;;22.27;10.38;;;;;;;;;;5027734;28;20048;-67
2023/03/01 14:21:47;;;;;;;15.55;7.75;;;;;;;;;;5030783;28;20045;-70
2023/03/01 14:24:22;;;;;;;26.73;12.90;;;;;;;;;;5013845;28;20040;-68
2023/03/01 14:26:50;;;;;;;25.85;12.07;;;;;;;;;;5030814;28;20060;-67
2023/03/01 14:29:27;;;;;;;16.77;9.45;;;;;;;;;;5031879;28;20407;-67
2023/03/01 14:32:21;;;;;;;31.42;11.95;;;;;;;;;;5002131;28;20127;-68
2023/03/01 14:34:48;;;;;;;21.55;10.05;;;;;;;;;;5000756;28;20037;-68
2023/03/01 14:37:34;;;;;;;26.88;10.18;;;;;;;;;;5001296;28;21337;-68
2023/03/01 14:40:03;;;;;;;28.77;12.20;;;;;;;;;;5000901;28;20067;-68
2023/03/01 14:42:32;;;;;;;24.27;11.93;;;;;;;;;;5001809;28;20049;-67
2023/03/01 14:45:01;;;;;;;20.88;10.98;;;;;;;;;;5001267;28;20065;-68
2023/03/01 14:47:32;;;;;;;30.67;12.50;;;;;;;;;;5003622;28;20065;-70
2023/03/01 14:50:08;;;;;;;25.88;11.07;;;;;;;;;;4991669;28;20100;-67
2023/03/01 14:52:42;;;;;;;24.73;11.30;;;;;;;;;;5007020;28;20041;-68
2023/03/01 14:55:19;;;;;;;21.00;11.40;;;;;;;;;;5026011;28;20106;-71